Upstream stations:
Downstream station:
SHEF ID: BRIO2 Canadian River at Bridgeport, OK
STATION TYPE:
Regulating: Stage = 15.00, Flow = 8545
STAGE RIV-FLOW
ft cfs
Ccp-Rev Ccp-Rev
(US/Central)
05/31 00:00 12.60 2190
05/31 01:00 12.60 2190
05/31 02:00 12.59 2176
05/31 03:00 12.58 2161
05/31 04:00 12.57 2146
05/31 05:00 12.55 2117
05/31 06:00 12.65 2265
05/31 07:00 13.16 3130
05/31 08:00 13.12 3055
05/31 09:00 12.96 2768
05/31 10:00 12.96 2768
05/31 11:00 12.93 2716
05/31 12:00 12.88 2631
05/31 13:00 12.88 2631
05/31 14:00 12.87 2615
05/31 15:00 12.87 2615
05/31 16:00 12.84 2565
05/31 17:00 12.78 2467
05/31 18:00 12.67 2295
05/31 19:00 12.64 2250
05/31 20:00 12.62 2220
05/31 21:00 12.60 2190
05/31 22:00 9.87 131
05/31 23:00 ---- ----